首页
METAR-TAF:

METAR-TAF

机场 :

Wekweeti, 西北特區, 加拿大

纬度: 64-11-27N, 经度: 114-04-36W, 海拔: 368米

当前天气观测

该预报发布于52分钟前的21:00 UTC
风速3节,风向西转西南
温度 -20°C
湿度 44%
气压 1026 hPa
能見度: 14.5公里
天空无云

METAR: CYWE 292100Z AUTO 24003KT 9SM CLR M20/M29 A3029 RMK SLP315

时间: 15:52 (21:52 UTC)

预报

该预报发布于3小时和14分钟前的18:38 UTC
预报有效从29日的 19点(UTC)到 30日的 01点(UTC)
风速3节,风向多变
能見度: 10公里
天空无云

TAF: CYWE 291838Z 2919/3001 VRB03KT P6SM SKC RMK FCST BASED ON AUTO OBS. NXT FCST WILL BE ISSUED AT 301245Z

超过4000个机场的气象观测和天气预报(METAR&TAF报告)。

可查询的气象台以黄色和红色小点在地图上表示。

将鼠标移到小点上方,可查看气象台名称。

然后点击查看天气观测和预报。

如需切换地图:点击带黑十字的绿色按钮放大地图;点击带横线的绿色按钮缩小地图;或者点击绿色箭头查看邻近地区的地图。


METAR-TAF: